createdAt,value
2018-06-10T00:00:34.848Z,83.20
2018-06-10T00:03:04.113Z,83.30
2018-06-10T00:05:33.372Z,83.40
2018-06-10T00:08:02.688Z,83.40
2018-06-10T00:10:31.987Z,83.70
2018-06-10T00:15:30.042Z,84.00
2018-06-10T00:17:59.324Z,84.00
2018-06-10T00:20:28.608Z,84.10
2018-06-10T00:22:57.888Z,84.00
2018-06-10T00:25:27.129Z,84.10
2018-06-10T00:27:56.440Z,84.10
2018-06-10T00:30:25.818Z,84.10
2018-06-10T00:32:55.080Z,84.10
2018-06-10T00:37:53.113Z,84.30
2018-06-10T00:40:22.375Z,84.00
2018-06-10T00:42:51.618Z,83.80
2018-06-10T00:45:20.933Z,83.60
2018-06-10T00:47:50.214Z,83.80
2018-06-10T00:50:19.472Z,83.80
2018-06-10T00:52:48.769Z,83.70
2018-06-10T00:55:18.020Z,83.80
2018-06-10T00:57:47.441Z,83.80
2018-06-10T01:00:16.889Z,83.90
2018-06-10T01:02:46.291Z,83.90
2018-06-10T01:05:15.815Z,83.90
2018-06-10T01:07:45.242Z,84.00
2018-06-10T01:10:14.635Z,84.00
2018-06-10T01:12:43.993Z,84.10
2018-06-10T01:15:13.283Z,84.20
2018-06-10T01:20:11.265Z,84.20
2018-06-10T01:22:40.520Z,84.30
2018-06-10T01:25:09.833Z,84.30
2018-06-10T01:27:39.133Z,84.50
2018-06-10T01:30:08.406Z,84.90
2018-06-10T01:32:37.723Z,85.20
2018-06-10T01:35:07.021Z,85.60
2018-06-10T01:37:36.396Z,85.80
2018-06-10T01:40:05.631Z,86.00
2018-06-10T01:42:34.894Z,86.30
2018-06-10T01:45:04.302Z,86.60
2018-06-10T01:47:33.571Z,86.80
2018-06-10T01:50:02.892Z,87.00
2018-06-10T01:52:32.151Z,87.10
2018-06-10T01:55:01.445Z,87.40
2018-06-10T01:57:30.704Z,87.60
2018-06-10T01:59:59.994Z,87.90
2018-06-10T02:02:29.226Z,87.80
2018-06-10T02:04:58.461Z,87.90
2018-06-10T02:09:56.578Z,88.30
2018-06-10T02:12:25.841Z,88.30
2018-06-10T02:19:52.711Z,88.60
2018-06-10T02:22:21.986Z,88.60
2018-06-10T02:24:51.228Z,88.80
2018-06-10T02:27:20.482Z,88.70
2018-06-10T02:29:49.778Z,88.90
2018-06-10T02:32:19.064Z,88.80
2018-06-10T02:34:48.387Z,88.80
2018-06-10T02:37:17.710Z,89.00
2018-06-10T02:39:48.041Z,88.90
2018-06-10T02:42:17.355Z,89.00
2018-06-10T02:44:46.724Z,89.00
2018-06-10T02:47:16.050Z,89.10
2018-06-10T02:52:14.060Z,89.20
2018-06-10T02:54:43.318Z,89.10
2018-06-10T02:59:41.360Z,88.70
2018-06-10T03:02:10.591Z,88.50
2018-06-10T03:04:39.889Z,88.50
2018-06-10T03:07:09.169Z,88.40
2018-06-10T03:09:38.469Z,88.40
2018-06-10T03:12:07.760Z,88.40
2018-06-10T03:14:37.084Z,88.40
2018-06-10T03:17:06.461Z,88.50
2018-06-10T03:19:35.822Z,88.60
2018-06-10T03:22:05.059Z,88.60
2018-06-10T03:24:34.358Z,88.40
2018-06-10T03:27:03.673Z,88.40
2018-06-10T03:29:32.923Z,88.10
2018-06-10T03:32:02.247Z,88.10
2018-06-10T03:34:31.532Z,88.10
2018-06-10T03:37:00.783Z,88.30
2018-06-10T03:39:30.045Z,88.40
2018-06-10T03:41:59.398Z,88.20
2018-06-10T03:44:28.693Z,88.30
2018-06-10T03:46:57.978Z,88.50
2018-06-10T03:49:27.355Z,88.60
2018-06-10T03:51:56.656Z,88.70
2018-06-10T03:54:25.942Z,88.90
2018-06-10T03:56:55.256Z,89.00
2018-06-10T03:59:24.482Z,89.20
2018-06-10T04:01:53.763Z,89.10
2018-06-10T04:04:23.031Z,89.20
2018-06-10T04:06:52.258Z,89.10
2018-06-10T04:09:21.536Z,89.10
2018-06-10T04:11:50.848Z,89.30
2018-06-10T04:14:20.099Z,89.40
2018-06-10T04:16:49.386Z,89.50
2018-06-10T04:19:18.669Z,89.60
2018-06-10T04:21:47.995Z,89.50
2018-06-10T04:24:17.294Z,89.60
2018-06-10T04:26:46.557Z,89.70
2018-06-10T04:29:15.843Z,89.90
2018-06-10T04:31:45.129Z,89.70
2018-06-10T04:34:14.502Z,89.60
2018-06-10T04:39:12.490Z,89.50
2018-06-10T04:41:41.809Z,89.40
2018-06-10T04:44:11.062Z,89.40
2018-06-10T04:46:40.331Z,89.40
2018-06-10T04:49:09.613Z,89.30
2018-06-10T04:51:38.912Z,89.20
2018-06-10T04:54:08.201Z,89.30
2018-06-10T04:56:37.509Z,89.20
2018-06-10T04:59:06.787Z,89.20
2018-06-10T05:01:36.095Z,89.20
2018-06-10T05:06:34.366Z,89.50
2018-06-10T05:09:03.890Z,89.70
2018-06-10T05:14:01.900Z,89.60
2018-06-10T05:16:31.180Z,89.60
2018-06-10T05:19:00.772Z,89.70
2018-06-10T05:21:30.061Z,89.90
2018-06-10T05:23:59.339Z,90.00
2018-06-10T05:26:28.684Z,90.00
2018-06-10T05:31:26.686Z,90.20
2018-06-10T05:33:55.961Z,90.30
2018-06-10T05:36:25.275Z,90.40
2018-06-10T05:38:54.556Z,90.50
2018-06-10T05:41:23.870Z,90.50
2018-06-10T05:46:21.903Z,90.70
2018-06-10T05:48:51.193Z,90.70
2018-06-10T05:51:20.522Z,90.70
2018-06-10T05:53:49.792Z,90.80
2018-06-10T05:56:19.116Z,90.90
2018-06-10T05:58:48.375Z,90.90
2018-06-10T06:01:17.666Z,90.90
2018-06-10T06:03:50.330Z,90.90
2018-06-10T06:08:48.418Z,90.90
2018-06-10T06:11:17.716Z,90.90
2018-06-10T06:16:15.809Z,91.00
2018-06-10T06:21:14.052Z,91.10
2018-06-10T06:23:43.510Z,91.20
2018-06-10T06:28:41.663Z,91.50
2018-06-10T06:31:10.918Z,91.60
2018-06-10T06:33:40.193Z,91.60
2018-06-10T06:38:38.268Z,91.80
2018-06-10T06:41:07.556Z,91.80
2018-06-10T06:43:36.885Z,91.80
2018-06-10T06:46:06.192Z,91.80
2018-06-10T06:48:35.508Z,91.90
2018-06-10T06:51:05.167Z,91.90
2018-06-10T06:53:34.436Z,91.90
2018-06-10T06:56:04.261Z,92.00
2018-06-10T06:58:33.672Z,92.20
2018-06-10T07:01:03.012Z,92.20
2018-06-10T07:03:32.313Z,92.20
2018-06-10T07:06:02.542Z,92.10
2018-06-10T07:08:31.882Z,92.20
2018-06-10T07:11:01.147Z,92.20
2018-06-10T07:13:30.408Z,92.20
2018-06-10T07:15:59.914Z,92.20
2018-06-10T07:18:29.187Z,92.10
2018-06-10T07:20:58.508Z,92.10
2018-06-10T07:23:27.840Z,92.10
2018-06-10T07:25:57.128Z,92.10
2018-06-10T07:30:55.223Z,91.90
2018-06-10T07:33:24.581Z,91.90
2018-06-10T07:35:53.875Z,91.80
2018-06-10T07:38:23.171Z,91.80
2018-06-10T07:40:52.556Z,91.50
2018-06-10T07:43:21.831Z,91.50
2018-06-10T07:45:51.215Z,91.40
2018-06-10T07:48:20.626Z,91.30
2018-06-10T07:50:49.949Z,91.10
2018-06-10T07:53:19.235Z,91.00
2018-06-10T07:55:48.558Z,90.70
2018-06-10T07:58:18.892Z,90.70
2018-06-10T08:00:48.166Z,90.70
2018-06-10T08:03:17.436Z,90.60
2018-06-10T08:05:46.873Z,90.50
2018-06-10T08:08:16.188Z,90.40
2018-06-10T08:10:45.578Z,90.20
2018-06-10T08:13:14.971Z,90.70
2018-06-10T08:15:44.255Z,90.60
2018-06-10T08:20:42.337Z,90.20
2018-06-10T08:23:11.576Z,90.00
2018-06-10T08:25:40.851Z,89.80
2018-06-10T08:28:10.177Z,89.50
2018-06-10T08:30:39.585Z,89.50
2018-06-10T08:33:08.854Z,89.30
2018-06-10T08:35:38.153Z,89.30
2018-06-10T08:38:07.582Z,89.10
2018-06-10T08:40:37.043Z,88.90
2018-06-10T08:45:35.187Z,88.70
2018-06-10T08:48:04.473Z,88.10
2018-06-10T08:50:33.755Z,87.90
2018-06-10T08:53:03.086Z,87.90
2018-06-10T08:55:32.375Z,87.50
2018-06-10T08:58:01.769Z,87.20
2018-06-10T09:00:31.150Z,86.90
2018-06-10T09:03:00.540Z,86.80
2018-06-10T09:05:29.826Z,86.40
2018-06-10T09:10:27.927Z,86.90
2018-06-10T09:12:57.224Z,87.10
2018-06-10T09:17:55.292Z,86.30
2018-06-10T09:20:24.712Z,86.40
2018-06-10T09:22:53.991Z,86.20
2018-06-10T09:25:23.285Z,86.40
2018-06-10T09:27:52.521Z,86.80
2018-06-10T09:32:50.597Z,86.30
2018-06-10T09:37:48.659Z,85.40
2018-06-10T09:40:18.069Z,85.20
2018-06-10T09:42:47.366Z,84.60
2018-06-10T09:45:16.780Z,83.40
2018-06-10T09:47:46.064Z,82.70
2018-06-10T09:50:15.482Z,81.30
2018-06-10T09:52:44.792Z,80.40
2018-06-10T09:55:14.185Z,79.70
2018-06-10T09:57:43.390Z,79.20
2018-06-10T10:00:16.885Z,79.60
2018-06-10T10:02:49.060Z,79.50
2018-06-10T10:05:18.556Z,77.80
2018-06-10T10:07:47.840Z,76.50
2018-06-10T10:10:17.128Z,76.60
2018-06-10T10:12:46.468Z,77.70
2018-06-10T10:17:44.488Z,76.60
2018-06-10T10:20:13.762Z,77.10
2018-06-10T10:22:43.050Z,78.20
2018-06-10T10:25:12.318Z,78.60
2018-06-10T10:27:41.629Z,78.30
2018-06-10T10:30:10.925Z,78.00
2018-06-10T10:32:40.237Z,78.20
2018-06-10T10:35:09.537Z,77.10
2018-06-10T10:37:38.818Z,76.10
2018-06-10T10:40:08.121Z,75.10
2018-06-10T10:42:42.444Z,75.40
2018-06-10T10:45:11.692Z,75.20
2018-06-10T10:47:40.997Z,75.10
2018-06-10T10:50:10.288Z,75.10
2018-06-10T10:52:39.592Z,73.20
2018-06-10T10:55:08.841Z,73.20
2018-06-10T10:57:41.450Z,71.60
2018-06-10T11:02:39.563Z,71.10
2018-06-10T11:05:08.871Z,70.70
2018-06-10T11:07:38.164Z,69.90
2018-06-10T11:10:07.831Z,69.30
2018-06-10T11:12:37.145Z,68.60
2018-06-10T11:15:06.450Z,69.10
2018-06-10T11:17:35.898Z,69.30
2018-06-10T11:20:05.183Z,68.80
2018-06-10T11:22:34.460Z,69.40
2018-06-10T11:25:03.848Z,70.20
2018-06-10T11:30:02.398Z,70.40
2018-06-10T11:32:31.764Z,70.20
2018-06-10T11:35:00.989Z,70.70
2018-06-10T11:37:30.319Z,70.60
2018-06-10T11:39:59.619Z,69.90
2018-06-10T11:42:28.918Z,71.00
2018-06-10T11:44:58.155Z,70.10
2018-06-10T11:49:56.618Z,69.40
2018-06-10T11:52:25.913Z,68.60
2018-06-10T11:54:55.826Z,69.00
2018-06-10T11:57:25.082Z,69.20
2018-06-10T11:59:54.537Z,69.80
2018-06-10T12:02:23.903Z,69.50
2018-06-10T12:04:53.196Z,70.00
2018-06-10T12:07:22.466Z,70.00
2018-06-10T12:12:20.527Z,70.10
2018-06-10T12:14:49.810Z,70.30
2018-06-10T12:17:19.180Z,71.20
2018-06-10T12:19:49.248Z,72.10
2018-06-10T12:22:18.703Z,72.50
2018-06-10T12:24:48.273Z,73.20
2018-06-10T12:27:17.618Z,73.30
2018-06-10T12:29:47.067Z,73.20
2018-06-10T12:32:16.340Z,73.50
2018-06-10T12:34:45.747Z,72.40
2018-06-10T12:37:15.104Z,72.10
2018-06-10T12:39:44.497Z,73.40
2018-06-10T12:42:13.805Z,74.50
2018-06-10T12:44:43.085Z,75.30
2018-06-10T12:49:41.088Z,75.50
2018-06-10T12:52:10.331Z,75.50
2018-06-10T12:54:39.544Z,75.70
2018-06-10T12:57:08.887Z,75.40
2018-06-10T12:59:38.273Z,75.70
2018-06-10T13:04:36.427Z,75.00
2018-06-10T13:07:05.664Z,72.90
2018-06-10T13:12:03.820Z,72.60
2018-06-10T13:14:33.109Z,70.50
2018-06-10T13:17:02.410Z,70.30
2018-06-10T13:19:31.687Z,70.40
2018-06-10T13:22:01.029Z,68.40
2018-06-10T13:24:30.359Z,67.20
2018-06-10T13:26:59.663Z,66.60
2018-06-10T13:29:28.951Z,65.50
2018-06-10T13:31:58.642Z,64.70
2018-06-10T13:34:27.901Z,64.70
2018-06-10T13:36:57.221Z,63.90
2018-06-10T13:39:26.672Z,63.30
2018-06-10T13:41:55.954Z,63.40
2018-06-10T13:44:25.307Z,63.30
2018-06-10T13:46:54.809Z,63.30
2018-06-10T13:49:24.126Z,62.40
2018-06-10T13:51:53.420Z,62.60
2018-06-10T13:54:22.741Z,63.40
2018-06-10T13:56:52.057Z,63.00
2018-06-10T13:59:21.321Z,63.10
2018-06-10T14:01:50.606Z,63.20
2018-06-10T14:04:19.828Z,63.10
2018-06-10T14:06:49.162Z,64.10
2018-06-10T14:09:18.436Z,64.60
2018-06-10T14:11:47.735Z,64.60
2018-06-10T14:14:16.984Z,63.60
2018-06-10T14:16:46.297Z,63.30
2018-06-10T14:19:15.706Z,63.40
2018-06-10T14:21:45.010Z,63.50
2018-06-10T14:24:15.182Z,62.80
2018-06-10T14:26:44.467Z,62.40
2018-06-10T14:29:13.853Z,62.30
2018-06-10T14:31:44.132Z,62.50
2018-06-10T14:34:13.628Z,62.70
2018-06-10T14:36:43.046Z,63.10
2018-06-10T14:39:12.318Z,63.00
2018-06-10T14:41:42.036Z,63.00
2018-06-10T14:44:11.351Z,62.70
2018-06-10T14:46:40.648Z,62.40
2018-06-10T14:49:10.087Z,62.40
2018-06-10T14:51:39.538Z,62.30
2018-06-10T14:54:08.874Z,62.50
2018-06-10T14:56:38.213Z,62.40
2018-06-10T14:59:07.491Z,62.30
2018-06-10T15:01:36.780Z,62.30
2018-06-10T15:04:06.120Z,61.80
2018-06-10T15:06:35.436Z,61.70
2018-06-10T15:11:33.991Z,61.30
2018-06-10T15:14:08.625Z,60.80
2018-06-10T15:16:37.880Z,60.50
2018-06-10T15:19:07.303Z,60.40
2018-06-10T15:21:36.613Z,60.00
2018-06-10T15:24:06.616Z,59.80
2018-06-10T15:26:36.395Z,60.10
2018-06-10T15:29:05.792Z,59.70
2018-06-10T15:31:35.143Z,59.30
2018-06-10T15:34:04.470Z,59.70
2018-06-10T15:36:33.806Z,59.30
2018-06-10T15:39:03.201Z,59.70
2018-06-10T15:41:32.464Z,59.40
2018-06-10T15:44:01.872Z,59.20
2018-06-10T15:46:31.198Z,59.50
2018-06-10T15:51:29.219Z,59.30
2018-06-10T15:53:58.472Z,59.30
2018-06-10T15:56:27.716Z,59.30
2018-06-10T15:58:57.039Z,59.30
2018-06-10T16:01:26.380Z,58.80
2018-06-10T16:06:24.686Z,59.20
2018-06-10T16:08:54.064Z,60.00
2018-06-10T16:11:23.376Z,59.30
2018-06-10T16:18:50.258Z,59.70
2018-06-10T16:23:48.318Z,59.50
2018-06-10T16:26:17.593Z,59.60
2018-06-10T16:28:46.905Z,59.40
2018-06-10T16:31:16.175Z,59.00
2018-06-10T16:33:45.943Z,59.20
2018-06-10T16:36:15.320Z,59.20
2018-06-10T16:38:44.726Z,59.50
2018-06-10T16:41:14.062Z,59.30
2018-06-10T16:43:43.397Z,59.90
2018-06-10T16:46:12.775Z,59.30
2018-06-10T16:48:45.295Z,58.90
2018-06-10T16:51:14.534Z,58.90
2018-06-10T16:53:44.402Z,59.50
2018-06-10T16:56:13.741Z,59.40
2018-06-10T16:58:44.256Z,59.80
2018-06-10T17:01:13.635Z,59.80
2018-06-10T17:03:42.911Z,59.40
2018-06-10T17:06:12.348Z,59.70
2018-06-10T17:08:41.748Z,59.70
2018-06-10T17:11:11.029Z,59.90
2018-06-10T17:13:40.391Z,59.70
2018-06-10T17:16:09.732Z,59.70
2018-06-10T17:18:39.010Z,59.80
2018-06-10T17:21:08.276Z,59.60
2018-06-10T17:23:37.491Z,60.00
2018-06-10T17:28:35.839Z,59.80
2018-06-10T17:31:05.204Z,60.10
2018-06-10T17:33:34.435Z,60.00
2018-06-10T17:36:03.798Z,60.10
2018-06-10T17:38:33.137Z,60.40
2018-06-10T17:41:02.501Z,60.20
2018-06-10T17:43:31.849Z,60.20
2018-06-10T17:46:01.214Z,60.30
2018-06-10T17:48:30.573Z,60.50
2018-06-10T17:50:59.885Z,60.70
2018-06-10T17:55:58.012Z,60.90
2018-06-10T17:58:27.289Z,61.90
2018-06-10T18:00:56.569Z,61.40
2018-06-10T18:03:26.254Z,61.70
2018-06-10T18:05:56.186Z,61.90
2018-06-10T18:08:25.696Z,62.30
2018-06-10T18:13:27.162Z,62.70
2018-06-10T18:15:56.622Z,63.00
2018-06-10T18:18:25.998Z,63.00
2018-06-10T18:20:55.296Z,63.00
2018-06-10T18:23:24.585Z,63.00
2018-06-10T18:25:53.971Z,63.40
2018-06-10T18:30:52.063Z,63.80
2018-06-10T18:33:21.375Z,63.80
2018-06-10T18:35:50.615Z,63.30
2018-06-10T18:38:19.887Z,63.40
2018-06-10T18:40:49.182Z,63.30
2018-06-10T18:43:18.419Z,63.70
2018-06-10T18:45:47.785Z,63.80
2018-06-10T18:48:17.062Z,64.10
2018-06-10T18:50:46.439Z,64.30
2018-06-10T18:53:15.773Z,64.80
2018-06-10T18:55:45.059Z,64.60
2018-06-10T18:58:14.333Z,64.40
2018-06-10T19:00:43.731Z,64.60
2018-06-10T19:03:13.007Z,64.60
2018-06-10T19:05:42.430Z,64.70
2018-06-10T19:08:12.103Z,65.00
2018-06-10T19:10:41.343Z,65.30
2018-06-10T19:13:10.584Z,65.60
2018-06-10T19:15:39.984Z,65.90
2018-06-10T19:20:38.607Z,66.40
2018-06-10T19:23:08.108Z,66.60
2018-06-10T19:25:37.424Z,67.50
2018-06-10T19:28:07.207Z,67.60
2018-06-10T19:30:36.775Z,67.30
2018-06-10T19:33:06.273Z,67.50
2018-06-10T19:35:36.011Z,67.70
2018-06-10T19:38:05.952Z,67.80
2018-06-10T19:40:35.723Z,67.80
2018-06-10T19:43:05.333Z,68.60
2018-06-10T19:45:34.782Z,68.90
2018-06-10T19:48:04.215Z,69.00
2018-06-10T19:50:33.599Z,69.20
2018-06-10T19:53:02.881Z,69.10
2018-06-10T19:55:32.132Z,69.30
2018-06-10T19:58:01.573Z,69.50
2018-06-10T20:00:30.839Z,69.40
2018-06-10T20:03:00.169Z,69.30
2018-06-10T20:05:29.421Z,69.80
2018-06-10T20:07:58.679Z,70.30
2018-06-10T20:10:27.990Z,70.20
2018-06-10T20:12:57.309Z,70.30
2018-06-10T20:15:26.664Z,70.20
2018-06-10T20:17:56.267Z,70.30
2018-06-10T20:22:54.257Z,70.30
2018-06-10T20:27:52.348Z,70.60
2018-06-10T20:30:25.753Z,71.00
2018-06-10T20:32:55.074Z,71.40
2018-06-10T20:35:24.359Z,71.80
2018-06-10T20:38:00.083Z,72.00
2018-06-10T20:40:29.371Z,72.10
2018-06-10T20:42:58.659Z,72.40
2018-06-10T20:45:27.974Z,72.50
2018-06-10T20:47:57.292Z,73.00
2018-06-10T20:50:26.565Z,73.10
2018-06-10T20:52:55.848Z,73.30
2018-06-10T20:55:25.181Z,72.60
2018-06-10T20:57:54.459Z,72.70
2018-06-10T21:00:23.884Z,72.70
2018-06-10T21:02:53.343Z,72.80
2018-06-10T21:05:22.636Z,73.00
2018-06-10T21:07:52.321Z,73.00
2018-06-10T21:10:21.580Z,72.90
2018-06-10T21:12:51.966Z,72.80
2018-06-10T21:15:21.502Z,72.90
2018-06-10T21:17:50.916Z,73.20
2018-06-10T21:20:25.198Z,73.00
2018-06-10T21:22:54.632Z,73.10
2018-06-10T21:25:24.089Z,73.10
2018-06-10T21:28:03.192Z,74.00
2018-06-10T21:30:32.598Z,73.30
2018-06-10T21:33:02.067Z,73.40
2018-06-10T21:35:31.648Z,73.30
2018-06-10T21:38:00.931Z,73.20
2018-06-10T21:40:30.261Z,73.30
2018-06-10T21:42:59.521Z,73.40
2018-06-10T21:45:28.768Z,73.30
2018-06-10T21:47:58.023Z,73.40
2018-06-10T21:50:27.355Z,73.40
2018-06-10T21:52:56.685Z,73.40
2018-06-10T21:55:25.956Z,73.50
2018-06-10T21:57:55.312Z,73.40
2018-06-10T22:00:25.796Z,73.50
2018-06-10T22:02:55.149Z,73.50
2018-06-10T22:05:24.473Z,73.50
2018-06-10T22:07:53.749Z,73.60
2018-06-10T22:10:23.038Z,73.70
2018-06-10T22:12:52.313Z,73.70
2018-06-10T22:15:21.576Z,73.80
2018-06-10T22:17:50.829Z,73.30
2018-06-10T22:20:20.226Z,73.90
2018-06-10T22:22:49.491Z,73.90
2018-06-10T22:25:18.742Z,74.10
2018-06-10T22:27:48.084Z,74.10
2018-06-10T22:30:17.312Z,74.20
2018-06-10T22:32:46.588Z,74.40
2018-06-10T22:35:15.858Z,74.80
2018-06-10T22:37:45.124Z,75.10
2018-06-10T22:40:14.416Z,75.20
2018-06-10T22:42:43.763Z,75.50
2018-06-10T22:45:13.027Z,76.00
2018-06-10T22:47:42.260Z,76.10
2018-06-10T22:50:11.541Z,76.40
2018-06-10T22:52:40.798Z,76.60
2018-06-10T22:55:10.092Z,76.90
2018-06-10T22:57:39.357Z,77.10
2018-06-10T23:00:08.814Z,77.10
2018-06-10T23:02:38.081Z,77.80
2018-06-10T23:05:07.373Z,77.30
2018-06-10T23:07:36.620Z,77.50
2018-06-10T23:10:05.906Z,77.70
2018-06-10T23:12:35.292Z,77.60
2018-06-10T23:15:04.631Z,77.60
2018-06-10T23:17:33.902Z,77.80
2018-06-10T23:20:03.159Z,78.00
2018-06-10T23:22:32.433Z,78.10
2018-06-10T23:25:01.726Z,78.40
2018-06-10T23:27:31.028Z,78.50
2018-06-10T23:30:00.291Z,78.60
2018-06-10T23:32:29.555Z,79.10
2018-06-10T23:34:58.859Z,78.90
2018-06-10T23:37:28.103Z,79.30
2018-06-10T23:39:57.337Z,79.30
2018-06-10T23:42:26.671Z,79.70
2018-06-10T23:44:55.992Z,80.50
2018-06-10T23:47:25.331Z,80.00
2018-06-10T23:49:54.652Z,79.80
2018-06-10T23:52:24.052Z,79.60
2018-06-10T23:54:53.361Z,79.80
2018-06-10T23:57:23.013Z,80.00
2018-06-10T23:59:52.211Z,80.00
